Data for 03/21/2016

Time Sea-Level Adjusted Pressure Absolute Pressure Temperature Relative Humidity Dew Point   
(mb) (inHg) (mb) (inHg) (C) (F) (%) (C) (F)
00:05 1013 29.91 842 24.86 8.2 46.7 29 -8.7 16.4
00:10 1013 29.91 842 24.86 7.8 46 29 -9 15.8
00:15 1013 29.91 842 24.86 7.7 45.9 30 -8.7 16.3
00:20 1013 29.91 842 24.86 7.7 45.8 31 -8.3 17
00:25 1013 29.91 842 24.86 7.4 45.4 32 -8.2 17.2
00:30 1013 29.91 842 24.86 7.2 45 32 -8.3 17
00:35 1013 29.91 842 24.86 7 44.7 33 -8.2 17.2
00:40 1013 29.91 842 24.86 7 44.7 33 -8.3 17
00:45 1012 29.88 842 24.86 7.1 44.7 33 -8.2 17.3
00:50 1012 29.88 842 24.86 7.2 44.9 32 -8.3 17.1
00:55 1012 29.88 841 24.83 7.3 45.2 32 -8.3 17
01:00 1012 29.88 841 24.83 7.4 45.4 32 -8.4 16.9
01:05 1012 29.88 841 24.83 7.4 45.3 32 -8.3 17.1
01:10 1012 29.88 841 24.83 7.4 45.4 32 -8 17.6
01:15 1012 29.88 841 24.83 7.3 45.1 33 -8 17.5
01:20 1012 29.88 841 24.83 7.2 44.9 34 -7.6 18.2
01:25 1012 29.88 841 24.83 6.8 44.3 35 -7.4 18.7
01:30 1012 29.88 841 24.83 6.6 43.9 36 -7.5 18.4
01:35 1012 29.88 841 24.83 6.6 44 36 -7.5 18.5
01:40 1012 29.88 841 24.83 6.9 44.4 34 -8.1 17.4
01:45 1012 29.88 841 24.83 7 44.6 34 -7.8 18
01:50 1012 29.88 841 24.83 7.2 44.9 34 -7.8 18
01:55 1012 29.88 841 24.83 7.2 45 32 -8.2 17.2
02:00 1012 29.88 841 24.83 7.8 46 32 -8 17.6
02:05 1012 29.88 841 24.83 8 46.5 33 -7.3 18.8
02:10 1012 29.88 841 24.83 7.7 45.8 34 -7.2 19.1
02:15 1012 29.88 841 24.83 7.2 45 34 -7.6 18.3
02:20 1012 29.88 841 24.83 7.3 45.2 34 -7.7 18.2
02:25 1012 29.88 841 24.83 7.5 45.5 37 -6.4 20.5
02:30 1012 29.88 841 24.83 7.3 45.1 38 -6.1 21
02:35 1012 29.88 841 24.83 7 44.6 39 -5.9 21.4
02:40 1012 29.88 841 24.83 6.8 44.2 38 -6.6 20.2
02:45 1012 29.88 841 24.83 7 44.6 39 -5.9 21.4
02:50 1012 29.88 841 24.83 6.9 44.4 37 -6.9 19.5
02:55 1012 29.88 841 24.83 6.8 44.2 37 -6.8 19.8
03:00 1011 29.85 841 24.83 7.2 45 34 -7.8 17.9
03:05 1011 29.85 841 24.83 7.6 45.7 38 -5.9 21.3
03:10 1011 29.85 841 24.83 6.6 43.9 40 -6.1 21
03:15 1011 29.85 841 24.83 6.5 43.7 41 -5.8 21.5
03:20 1011 29.85 841 24.83 6.5 43.6 44 -4.9 23.3
03:25 1011 29.85 841 24.83 6.3 43.3 41 -6.1 21
03:30 1011 29.85 841 24.83 6.7 44 40 -5.8 21.5
03:35 1011 29.85 841 24.83 6.5 43.8 41 -5.6 21.9
03:40 1012 29.88 841 24.83 6.5 43.8 42 -5.6 22
03:45 1012 29.88 841 24.83 7 44.5 38 -6.3 20.7
03:50 1012 29.88 841 24.83 7.4 45.3 40 -5.3 22.4
03:55 1012 29.88 841 24.83 7.3 45.1 39 -5.8 21.6
04:00 1012 29.88 841 24.83 7.5 45.4 37 -6.1 20.9
04:05 1012 29.88 841 24.83 7.6 45.7 39 -5.5 22.1
04:10 1012 29.88 841 24.83 7.3 45.2 39 -5.7 21.8
04:15 1012 29.88 841 24.83 7.4 45.3 38 -6.2 20.9
04:20 1012 29.88 841 24.83 7.6 45.7 38 -5.8 21.5
04:25 1012 29.88 841 24.83 7.6 45.6 38 -5.8 21.6
04:30 1012 29.88 841 24.83 7.5 45.5 38 -5.8 21.5
04:35 1012 29.88 841 24.83 7.4 45.4 39 -5.7 21.7
04:40 1012 29.88 841 24.83 7.6 45.6 39 -5.7 21.8
04:45 1012 29.88 841 24.83 7.7 45.8 39 -5.5 22.2
04:50 1012 29.88 841 24.83 7.8 46 38 -5.5 22.1
04:55 1012 29.88 841 24.83 7.7 45.8 39 -5.4 22.2
05:00 1012 29.88 841 24.83 7.6 45.6 39 -5.5 22.1
05:05 1012 29.88 841 24.83 7.8 46 38 -5.6 22
05:10 1012 29.88 841 24.83 7.9 46.2 38 -5.5 22
05:15 1011 29.85 841 24.83 7.9 46.3 41 -4.4 24.2
05:20 1011 29.85 841 24.83 7.4 45.4 41 -5 23.1
05:25 1011 29.85 841 24.83 7.8 46.1 40 -5.1 22.8
05:30 1011 29.85 841 24.83 8 46.4 40 -4.8 23.4
05:35 1011 29.85 840 24.81 7.9 46.1 40 -5 23
05:40 1011 29.85 840 24.81 8 46.3 40 -4.9 23.3
05:45 1011 29.85 840 24.81 8.1 46.6 39 -4.9 23.2
05:50 1011 29.85 841 24.83 8.3 46.9 40 -4.6 23.7
05:55 1011 29.85 841 24.83 8.2 46.7 40 -4.7 23.6
06:00 1011 29.85 841 24.83 8.1 46.5 41 -4.5 23.8
06:05 1012 29.88 841 24.83 7.9 46.2 42 -4.1 24.6
06:10 1012 29.88 841 24.83 7.7 45.9 42 -4.5 23.9
06:15 1012 29.88 841 24.83 8 46.3 41 -4.6 23.8
06:20 1012 29.88 841 24.83 8.2 46.8 39 -4.8 23.4
06:25 1012 29.88 841 24.83 8.6 47.4 39 -4.7 23.6
06:30 1012 29.88 841 24.83 8.7 47.7 38 -4.8 23.3
06:35 1012 29.88 841 24.83 9.1 48.3 37 -4.9 23.2
06:40 1012 29.88 841 24.83 9.4 48.9 37 -4.5 23.8
06:45 1012 29.88 841 24.83 9.4 48.9 37 -4.6 23.7
06:50 1012 29.88 841 24.83 9.4 48.9 37 -4.4 24.1
06:55 1012 29.88 841 24.83 9.3 48.8 37 -4.4 24
07:00 1012 29.88 841 24.83 9.3 48.7 38 -4.4 24.2
07:05 1011 29.85 841 24.83 9.3 48.7 37 -4.6 23.7
07:10 1011 29.85 841 24.83 9.5 49.1 36 -4.8 23.3
07:15 1011 29.85 841 24.83 9.7 49.4 34 -5.4 22.3
07:20 1012 29.88 841 24.83 9.9 49.8 35 -4.8 23.3
07:25 1012 29.88 841 24.83 9.8 49.6 36 -4.6 23.7
07:30 1012 29.88 841 24.83 9.6 49.3 36 -4.8 23.4
07:35 1012 29.88 841 24.83 9.6 49.4 36 -4.8 23.3
07:40 1012 29.88 841 24.83 9.8 49.6 35 -5 23.1
07:45 1012 29.88 841 24.83 9.9 49.8 34 -5.1 22.8
07:50 1011 29.85 841 24.83 10 50 35 -4.8 23.4
07:55 1011 29.85 841 24.83 10.1 50.2 35 -4.7 23.5
08:00 1012 29.88 841 24.83 10.3 50.6 34 -5 23.1
08:05 1012 29.88 841 24.83 10.8 51.5 34 -4.6 23.8
08:10 1012 29.88 841 24.83 10.9 51.6 34 -4.4 24.1
08:15 1012 29.88 841 24.83 10.7 51.3 34 -4.4 24.1
08:20 1012 29.88 841 24.83 10.5 50.9 34 -4.5 23.9
08:25 1012 29.88 841 24.83 10.4 50.8 35 -4.2 24.4
08:30 1012 29.88 841 24.83 10.5 50.9 36 -4 24.8
08:35 1012 29.88 841 24.83 10.5 51 36 -3.8 25.1
08:40 1012 29.88 841 24.83 10.4 50.7 37 -3.7 25.4
08:45 1012 29.88 841 24.83 9.9 49.8 38 -3.8 25.2
08:50 1012 29.88 841 24.83 9.7 49.4 37 -4.1 24.6
08:55 1012 29.88 841 24.83 9.5 49.2 38 -4.2 24.5
09:00 1012 29.88 841 24.83 9.5 49 38 -4.3 24.3
09:05 1012 29.88 841 24.83 9.3 48.7 39 -3.8 25.2
09:10 1012 29.88 841 24.83 9.1 48.4 40 -3.7 25.3
09:15 1012 29.88 841 24.83 9.2 48.5 40 -3.7 25.4
09:20 1012 29.88 841 24.83 9.3 48.8 40 -3.7 25.4
09:25 1012 29.88 841 24.83 9.4 48.8 39 -3.7 25.3
09:30 1012 29.88 841 24.83 9.2 48.6 40 -3.7 25.4
09:35 1012 29.88 841 24.83 9.1 48.4 40 -3.7 25.4
09:40 1012 29.88 841 24.83 9.3 48.7 40 -3.5 25.8
09:45 1012 29.88 841 24.83 9.5 49 40 -3.3 26
09:50 1012 29.88 841 24.83 9.7 49.4 40 -3.3 26.1
09:55 1012 29.88 841 24.83 9.9 49.7 40 -3 26.6
10:00 1012 29.88 841 24.83 9.9 49.7 40 -2.9 26.7
10:05 1012 29.88 841 24.83 10 50 41 -2.6 27.2
10:10 1012 29.88 841 24.83 10 49.9 41 -2.6 27.4
10:15 1012 29.88 841 24.83 10.1 50.1 40 -2.7 27.1
10:20 1012 29.88 841 24.83 10.2 50.4 41 -2.5 27.4
10:25 1012 29.88 841 24.83 10.6 51.1 39 -2.6 27.3
10:30 1011 29.85 841 24.83 10.5 50.9 41 -2.1 28.1
10:35 1011 29.85 841 24.83 10.3 50.6 41 -2.2 28
10:40 1011 29.85 841 24.83 10.2 50.3 41 -2.3 27.8
10:45 1011 29.85 841 24.83 10.5 50.9 40 -2.6 27.3
10:50 1011 29.85 841 24.83 11 51.7 40 -2.1 28.2
10:55 1011 29.85 841 24.83 11 51.7 40 -2.2 28
11:00 1011 29.85 841 24.83 11 51.7 40 -2.1 28.1
11:05 1011 29.85 841 24.83 10.9 51.6 40 -2.1 28.2
11:10 1011 29.85 841 24.83 11 51.8 39 -2.4 27.7
11:15 1011 29.85 840 24.81 11 51.8 39 -2.5 27.5
11:20 1011 29.85 840 24.81 11.5 52.6 37 -2.7 27.1
11:25 1011 29.85 840 24.81 11.8 53.3 37 -2.5 27.6
11:30 1011 29.85 840 24.81 11.8 53.2 37 -2.6 27.4
11:35 1011 29.85 840 24.81 11.9 53.3 37 -2.5 27.5
11:40 1011 29.85 840 24.81 11.7 53 38 -2.2 28
11:45 1010 29.83 840 24.81 11.5 52.7 38 -2.2 28
11:50 1011 29.85 840 24.81 11.8 53.3 37 -2.3 27.8
11:55 1011 29.85 840 24.81 12 53.6 37 -2.2 28
12:00 1011 29.85 840 24.81 11.7 53.1 37 -2.3 27.8
12:05 1011 29.85 840 24.81 11.7 53 37 -2.5 27.4
12:10 1010 29.83 840 24.81 11.7 53 37 -2.5 27.5
12:15 1010 29.83 840 24.81 11.6 52.9 37 -2.4 27.8
12:20 1010 29.83 840 24.81 11.6 52.9 38 -2.3 27.8
12:25 1010 29.83 840 24.81 11.5 52.7 38 -2.3 27.9
12:30 1010 29.83 839 24.78 11.7 53 38 -2.2 28
12:35 1010 29.83 839 24.78 11.5 52.6 38 -2.3 27.8
12:40 1010 29.83 839 24.78 11.3 52.4 40 -1.8 28.7
12:45 1010 29.83 839 24.78 11.5 52.6 38 -2.3 27.8
12:50 1010 29.83 839 24.78 11.9 53.3 34 -3.5 25.8
12:55 1010 29.83 839 24.78 11.8 53.2 34 -3.6 25.5
13:00 1010 29.83 839 24.78 12.5 54.4 31 -4.1 24.6
13:05 1010 29.83 839 24.78 13.1 55.6 25 -6.6 20.1
13:10 1009 29.8 839 24.78 13 55.4 24 -6.8 19.8
13:15 1009 29.8 839 24.78 13.4 56.2 23 -7.4 18.7
13:20 1009 29.8 839 24.78 13.7 56.7 22 -7.3 18.8
13:25 1009 29.8 838 24.75 14.1 57.3 20 -8.2 17.2
13:30 1009 29.8 838 24.75 14.6 58.4 19 -8.5 16.6
13:35 1009 29.8 838 24.75 14.7 58.5 18 -9.5 14.8
13:40 1009 29.8 838 24.75 14.7 58.5 17 -10 14
13:45 1009 29.8 838 24.75 14.3 57.8 16 -11.5 11.2
13:50 1009 29.8 838 24.75 14.6 58.3 15 -11.4 11.4
13:55 1009 29.8 838 24.75 14.6 58.2 17 -10.5 13.1
14:00 1009 29.8 838 24.75 14.6 58.3 16 -11.3 11.7
14:05 1009 29.8 838 24.75 14.8 58.6 16 -11.1 12
14:10 1009 29.8 838 24.75 14.8 58.7 16 -11.1 12
14:15 1009 29.8 838 24.75 15.3 59.6 16 -10 14
14:20 1009 29.8 838 24.75 14.6 58.3 32 -2 28.4
14:25 1009 29.8 838 24.75 13.2 55.7 34 -2.3 27.9
14:30 1009 29.8 838 24.75 13.3 56 33 -2.4 27.6
14:35 1009 29.8 838 24.75 12.5 54.6 37 -1.6 29.1
14:40 1009 29.8 838 24.75 12.2 53.9 40 -0.9 30.3
14:45 1009 29.8 838 24.75 11.6 52.8 42 -0.8 30.6
14:50 1009 29.8 838 24.75 10.7 51.3 41 -2.1 28.2
14:55 1009 29.8 838 24.75 11.3 52.3 39 -2 28.4
15:00 1009 29.8 838 24.75 11.2 52.2 39 -2.3 27.8
15:05 1009 29.8 838 24.75 11.7 53.1 37 -2.4 27.7
15:10 1009 29.8 838 24.75 12.4 54.3 36 -2.3 27.9
15:15 1009 29.8 838 24.75 12.4 54.2 36 -2.2 28
15:20 1009 29.8 838 24.75 12.1 53.9 37 -2.2 28
15:25 1009 29.8 838 24.75 12 53.5 37 -2.1 28.3
15:30 1009 29.8 838 24.75 11.9 53.3 37 -2.3 27.8
15:35 1009 29.8 838 24.75 11.7 53 36 -3 26.7
15:40 1009 29.8 838 24.75 11.8 53.2 32 -4.3 24.2
15:45 1009 29.8 838 24.75 12.1 53.7 33 -3.7 25.3
15:50 1009 29.8 838 24.75 12.2 53.9 33 -3.5 25.8
15:55 1009 29.8 838 24.75 12.7 54.8 32 -3.5 25.7
16:00 1009 29.8 838 24.75 12.2 54 33 -3.4 25.9
16:05 1009 29.8 838 24.75 12.1 53.8 32 -4.1 24.5
16:10 1008 29.77 838 24.75 12.5 54.6 32 -3.8 25.1
16:15 1008 29.77 838 24.75 12.7 54.9 29 -4.6 23.7
16:20 1008 29.77 838 24.75 13 55.4 28 -4.9 23.2
16:25 1008 29.77 838 24.75 13.2 55.7 28 -4.7 23.5
16:30 1008 29.77 838 24.75 13.5 56.4 28 -4.5 23.9
16:35 1008 29.77 838 24.75 13.7 56.7 20 -9 15.8
16:40 1008 29.77 838 24.75 13.8 56.9 15 -12.2 10.1
16:45 1008 29.77 838 24.75 13.5 56.3 15 -12.9 8.8
16:50 1008 29.77 837 24.72 13.3 55.9 17 -11.4 11.5
16:55 1008 29.77 837 24.72 13.5 56.4 16 -12.1 10.3
17:00 1008 29.77 837 24.72 13.6 56.5 16 -11.9 10.7
17:05 1008 29.77 837 24.72 13.7 56.6 15 -12.4 9.6
17:10 1008 29.77 837 24.72 13 55.3 18 -11.1 12
17:15 1008 29.77 837 24.72 12.5 54.4 19 -10.2 13.6
17:20 1008 29.77 837 24.72 12.5 54.4 20 -9.9 14.2
17:25 1008 29.77 837 24.72 12.2 53.9 21 -9.7 14.5
17:30 1008 29.77 837 24.72 12.3 54.1 21 -9.6 14.7
17:35 1008 29.77 838 24.75 12.5 54.4 21 -9.2 15.4
17:40 1008 29.77 838 24.75 12.4 54.3 21 -9.1 15.6
17:45 1008 29.77 838 24.75 12.1 53.8 22 -9.2 15.4
17:50 1008 29.77 838 24.75 12 53.7 22 -8.9 16.1
17:55 1009 29.8 838 24.75 11.9 53.4 23 -8.4 16.9
18:00 1008 29.77 838 24.75 11.6 52.8 24 -8.1 17.4
18:05 1008 29.77 838 24.75 11.4 52.5 25 -8.1 17.3
18:10 1008 29.77 838 24.75 11.2 52.2 25 -8.1 17.5
18:15 1008 29.77 838 24.75 11.1 51.9 25 -8.3 17.1
18:20 1008 29.77 838 24.75 11 51.8 25 -8.5 16.7
18:25 1008 29.77 838 24.75 10.8 51.5 25 -8.3 17
18:30 1009 29.8 838 24.75 10.6 51.1 26 -8.2 17.2
18:35 1009 29.8 838 24.75 10.4 50.7 26 -8.5 16.7
18:40 1009 29.8 838 24.75 10.2 50.4 27 -8.2 17.3
18:45 1009 29.8 838 24.75 9.9 49.9 27 -8.1 17.5
18:50 1009 29.8 838 24.75 9.7 49.4 28 -8.2 17.3
18:55 1009 29.8 838 24.75 9.5 49.1 28 -8.1 17.4
19:00 1009 29.8 838 24.75 9.4 48.9 28 -8.1 17.4
19:05 1009 29.8 838 24.75 9.3 48.7 28 -8.1 17.4
19:10 1009 29.8 838 24.75 8.8 47.9 30 -7.8 17.9
19:15 1009 29.8 838 24.75 8.4 47.1 30 -8.1 17.5
19:20 1009 29.8 838 24.75 8.3 47 29 -8.5 16.7
19:25 1009 29.8 838 24.75 8.4 47.1 30 -8.4 16.9
19:30 1009 29.8 838 24.75 8.4 47.1 30 -8.3 17.1
19:35 1009 29.8 838 24.75 8.1 46.7 31 -7.9 17.7
19:40 1009 29.8 838 24.75 7.9 46.3 32 -7.8 17.9
19:45 1009 29.8 838 24.75 7.7 45.8 32 -8.1 17.4
19:50 1009 29.8 838 24.75 7.7 45.8 32 -8.2 17.3
19:55 1009 29.8 838 24.75 7.8 46.1 32 -7.7 18.1
20:00 1009 29.8 838 24.75 7.5 45.5 33 -7.8 18
20:05 1009 29.8 838 24.75 7.4 45.3 33 -7.7 18.2
20:10 1009 29.8 838 24.75 7.1 44.8 35 -7.3 18.8
20:15 1008 29.77 838 24.75 6.8 44.2 38 -6.7 19.9
20:20 1008 29.77 838 24.75 6.6 44 38 -6.6 20
20:25 1009 29.8 838 24.75 6.6 43.9 38 -6.6 20.1
20:30 1008 29.77 838 24.75 6.5 43.7 37 -7.2 19
20:35 1008 29.77 838 24.75 6.7 44.1 38 -6.6 20.2
20:40 1008 29.77 838 24.75 6.4 43.6 39 -6.4 20.5
20:45 1008 29.77 838 24.75 6 42.8 40 -6.4 20.4
20:50 1008 29.77 838 24.75 6 42.8 41 -6.2 20.8
20:55 1008 29.77 838 24.75 5.7 42.3 42 -6.1 21
21:00 1008 29.77 838 24.75 5.7 42.2 42 -6.1 21
21:05 1008 29.77 838 24.75 5.6 42 43 -5.9 21.4
21:10 1008 29.77 838 24.75 5.2 41.4 44 -6 21.2
21:15 1008 29.77 837 24.72 4.9 40.7 45 -6.1 21
21:20 1008 29.77 837 24.72 4.8 40.6 44 -6.4 20.4
21:25 1008 29.77 837 24.72 4.9 40.7 44 -6.3 20.7
21:30 1008 29.77 837 24.72 4.9 40.8 44 -6.2 20.8
21:35 1008 29.77 837 24.72 4.9 40.9 43 -6.5 20.4
21:40 1008 29.77 837 24.72 5.5 41.9 41 -6.7 19.9
21:45 1008 29.77 837 24.72 5.7 42.3 41 -6.5 20.2
21:50 1008 29.77 837 24.72 5.9 42.5 41 -6.4 20.5
21:55 1008 29.77 837 24.72 6.1 43 38 -7 19.4
22:00 1008 29.77 837 24.72 6.4 43.5 38 -6.8 19.7
22:05 1008 29.77 837 24.72 6.4 43.5 39 -6.6 20.1
22:10 1008 29.77 837 24.72 6.2 43.1 40 -6.3 20.6
22:15 1008 29.77 837 24.72 6 42.9 40 -6.7 20
22:20 1008 29.77 837 24.72 6 42.8 40 -6.6 20.1
22:25 1008 29.77 837 24.72 5.9 42.6 40 -6.6 20.1
22:30 1008 29.77 837 24.72 6 42.7 39 -7 19.3
22:35 1008 29.77 837 24.72 6.3 43.4 38 -6.9 19.6
22:40 1008 29.77 837 24.72 5.9 42.6 42 -6 21.2
22:45 1008 29.77 837 24.72 5.1 41.2 44 -6.2 20.8
22:50 1008 29.77 837 24.72 4.8 40.6 45 -6.2 20.8
22:55 1008 29.77 837 24.72 4.6 40.3 45 -6.5 20.4
23:00 1008 29.77 837 24.72 4.5 40.1 45 -6.3 20.6
23:05 1007 29.74 837 24.72 4.5 40 44 -6.7 19.9
23:10 1007 29.74 837 24.72 4.7 40.5 43 -6.7 19.9
23:15 1007 29.74 837 24.72 5 41 42 -6.9 19.6
23:20 1008 29.77 837 24.72 5 41.1 44 -6.2 20.8
23:25 1008 29.77 837 24.72 5 41 41 -7.1 19.3
23:30 1007 29.74 837 24.72 5.6 42.1 40 -7 19.4
23:35 1007 29.74 837 24.72 5.6 42.1 43 -6.1 21
23:40 1007 29.74 837 24.72 5.4 41.7 43 -6.2 20.8
23:45 1007 29.74 837 24.72 4.6 40.4 47 -5.7 21.8
23:50 1007 29.74 836 24.69 4.1 39.5 46 -6.5 20.2
23:55 1007 29.74 836 24.69 4.9 40.8 45 -6 21.1
24:00 1007 29.74 836 24.69 4.6 40.3 47 -5.7 21.8